Time;durP1;ratioP1;P1;durP2;ratioP2;P2;SDS_P1;SDS_P2;PMS_P1;PMS_P2;Temp;Humidity;BMP_temperature;BMP_pressure;BME280_temperature;BME280_humidity;BME280_pressure;Samples;Min_cycle;Max_cycle;Signal;HPM_P1;HPM_P2
2024/03/03 00:00:13;;;;;;;45.47;21.40;;;8.10;99.90;;;;;;5062017;28;20021;-74
2024/03/03 00:02:41;;;;;;;44.30;20.48;;;8.10;99.90;;;;;;5060428;28;20862;-73
2024/03/03 00:05:07;;;;;;;45.85;20.30;;;8.00;99.90;;;;;;5061794;28;20040;-73
2024/03/03 00:07:32;;;;;;;41.83;20.90;;;8.10;99.90;;;;;;5061218;28;20029;-71
2024/03/03 00:09:58;;;;;;;41.97;20.38;;;8.10;99.90;;;;;;5064186;28;20045;-74
2024/03/03 00:12:23;;;;;;;40.35;20.45;;;8.00;99.90;;;;;;5065755;28;20025;-74
2024/03/03 00:14:49;;;;;;;42.55;20.90;;;8.00;99.90;;;;;;5066115;28;20025;-73
2024/03/03 00:17:15;;;;;;;42.42;20.13;;;8.00;99.90;;;;;;5065554;28;20024;-73
2024/03/03 00:19:41;;;;;;;46.00;22.08;;;8.00;99.90;;;;;;5064358;28;20428;-72
2024/03/03 00:22:07;;;;;;;42.67;21.63;;;8.00;99.90;;;;;;5065667;28;20021;-73
2024/03/03 00:24:33;;;;;;;45.17;21.77;;;8.00;99.90;;;;;;5064832;28;20029;-73
2024/03/03 00:26:58;;;;;;;42.88;21.38;;;7.90;99.90;;;;;;5065797;28;20024;-73
2024/03/03 00:29:24;;;;;;;42.05;21.10;;;7.90;99.90;;;;;;5064253;28;20045;-73
2024/03/03 00:31:50;;;;;;;42.78;21.17;;;7.90;99.90;;;;;;5065430;28;20024;-73
2024/03/03 00:34:15;;;;;;;49.15;21.45;;;7.90;99.90;;;;;;5064236;28;20047;-74
2024/03/03 00:36:41;;;;;;;45.13;20.58;;;7.90;99.90;;;;;;5065318;28;20078;-72
2024/03/03 00:39:07;;;;;;;44.40;22.13;;;8.00;99.90;;;;;;5062296;28;20738;-73
2024/03/03 00:41:32;;;;;;;44.80;21.90;;;7.80;99.90;;;;;;5062668;28;20031;-74
2024/03/03 00:43:58;;;;;;;44.22;21.25;;;7.80;99.90;;;;;;5063122;28;20065;-73
2024/03/03 00:46:24;;;;;;;43.20;21.63;;;7.80;99.90;;;;;;5064379;28;20023;-73
2024/03/03 00:48:49;;;;;;;47.20;21.95;;;7.80;99.90;;;;;;5064375;28;20025;-74
2024/03/03 00:51:15;;;;;;;45.55;21.38;;;7.80;99.90;;;;;;5063526;28;20035;-74
2024/03/03 00:53:40;;;;;;;49.17;22.13;;;7.90;99.90;;;;;;5064317;28;20039;-73
2024/03/03 00:56:06;;;;;;;45.40;22.10;;;7.90;99.90;;;;;;5065025;28;20074;-72
2024/03/03 00:58:32;;;;;;;45.05;21.83;;;7.90;99.90;;;;;;5063753;28;20029;-73
2024/03/03 01:00:57;;;;;;;42.97;21.48;;;7.80;99.90;;;;;;5062809;28;20066;-74
2024/03/03 01:03:23;;;;;;;43.67;22.42;;;7.80;99.90;;;;;;5064974;28;20047;-72
2024/03/03 01:05:48;;;;;;;44.33;22.00;;;7.80;99.90;;;;;;5063522;28;20052;-74
2024/03/03 01:08:14;;;;;;;46.70;22.88;;;7.80;99.90;;;;;;5063324;28;20017;-73
2024/03/03 01:10:40;;;;;;;47.53;21.05;;;7.70;99.90;;;;;;5063553;28;20168;-75
2024/03/03 01:13:05;;;;;;;43.33;21.60;;;7.70;99.90;;;;;;5064161;28;20555;-73
2024/03/03 01:15:31;;;;;;;43.40;22.38;;;7.60;99.90;;;;;;5063045;28;20025;-74
2024/03/03 01:17:56;;;;;;;44.50;21.48;;;7.60;99.90;;;;;;5064676;28;20017;-73
2024/03/03 01:20:23;;;;;;;48.63;22.33;;;7.60;99.90;;;;;;5063065;28;20024;-75
2024/03/03 01:22:48;;;;;;;50.33;23.25;;;7.60;99.90;;;;;;5064531;28;20063;-73
2024/03/03 01:25:14;;;;;;;44.95;21.67;;;7.50;99.90;;;;;;5063896;28;20036;-73
2024/03/03 01:27:40;;;;;;;48.60;22.50;;;7.50;99.90;;;;;;5064203;28;20021;-73
2024/03/03 01:30:06;;;;;;;43.13;22.05;;;7.40;99.90;;;;;;5064320;28;20044;-71
2024/03/03 01:32:32;;;;;;;43.95;21.98;;;7.40;99.90;;;;;;5063087;28;20032;-72
2024/03/03 01:34:57;;;;;;;50.83;22.80;;;7.40;99.90;;;;;;5063864;28;20016;-72
2024/03/03 01:37:23;;;;;;;45.03;21.08;;;7.40;99.90;;;;;;5064254;28;20041;-71
2024/03/03 01:39:49;;;;;;;47.72;21.80;;;7.40;99.90;;;;;;5062705;28;20047;-72
2024/03/03 01:42:15;;;;;;;47.63;22.77;;;7.30;99.90;;;;;;5063065;28;20115;-71
2024/03/03 01:44:41;;;;;;;51.90;23.52;;;7.30;99.90;;;;;;5062803;28;20033;-71
2024/03/03 01:47:11;;;;;;;47.88;22.90;;;7.40;99.90;;;;;;5063085;28;20033;-70
2024/03/03 01:49:38;;;;;;;48.08;22.05;;;7.40;99.90;;;;;;5063635;28;20123;-71
2024/03/03 01:52:05;;;;;;;46.28;22.63;;;7.40;99.90;;;;;;5063066;28;20083;-72
2024/03/03 01:54:34;;;;;;;48.47;21.90;;;7.40;99.90;;;;;;5062064;28;20033;-73
2024/03/03 01:57:02;;;;;;;46.30;21.08;;;7.30;99.90;;;;;;5061878;28;20029;-74
2024/03/03 01:59:28;;;;;;;48.55;23.15;;;7.30;99.90;;;;;;5059692;28;20565;-71
2024/03/03 02:01:56;;;;;;;48.80;23.05;;;7.30;99.90;;;;;;5062048;28;20108;-73
2024/03/03 02:04:23;;;;;;;49.95;23.08;;;7.20;99.90;;;;;;5062391;28;20029;-73
2024/03/03 02:06:50;;;;;;;49.47;23.48;;;7.20;99.90;;;;;;5061525;28;20458;-72
2024/03/03 02:09:17;;;;;;;53.65;23.13;;;7.20;99.90;;;;;;5062735;28;20057;-74
2024/03/03 02:11:43;;;;;;;50.75;23.70;;;7.20;99.90;;;;;;5062707;28;20092;-73
2024/03/03 02:14:08;;;;;;;55.60;24.60;;;7.20;99.90;;;;;;5062066;28;20025;-74
2024/03/03 02:16:34;;;;;;;50.20;23.92;;;7.30;99.90;;;;;;5063512;28;20083;-72
2024/03/03 02:18:59;;;;;;;51.38;23.27;;;7.10;99.90;;;;;;5062893;28;20056;-73
2024/03/03 02:21:25;;;;;;;47.13;23.42;;;7.10;99.90;;;;;;5063562;28;20048;-74
2024/03/03 02:23:51;;;;;;;49.35;22.52;;;7.20;99.90;;;;;;5063626;28;21459;-73
2024/03/03 02:26:22;;;;;;;48.35;22.55;;;7.10;99.90;;;;;;5062087;28;20041;-74
2024/03/03 02:28:52;;;;;;;55.72;25.08;;;7.00;99.90;;;;;;5060899;28;20123;-75
2024/03/03 02:31:18;;;;;;;55.97;25.25;;;6.90;99.90;;;;;;5060647;28;20036;-73
2024/03/03 02:33:44;;;;;;;55.47;25.58;;;6.90;99.90;;;;;;5061590;28;20097;-72
2024/03/03 02:36:16;;;;;;;51.45;24.33;;;6.90;99.90;;;;;;5062129;28;20171;-74
2024/03/03 02:38:50;;;;;;;58.17;24.58;;;6.90;99.90;;;;;;5060524;28;20569;-74
2024/03/03 02:41:16;;;;;;;58.25;25.02;;;6.80;99.90;;;;;;5060878;28;20029;-73
2024/03/03 02:43:41;;;;;;;54.42;25.00;;;6.80;99.90;;;;;;5061623;28;20047;-73
2024/03/03 02:46:07;;;;;;;56.25;25.05;;;6.90;99.90;;;;;;5062037;28;20418;-72
2024/03/03 02:48:32;;;;;;;59.28;26.10;;;6.80;99.90;;;;;;5061090;28;20025;-72
2024/03/03 02:50:58;;;;;;;64.57;26.77;;;6.70;99.90;;;;;;5062399;28;20048;-72
2024/03/03 02:53:23;;;;;;;59.58;26.30;;;6.80;99.90;;;;;;5058573;28;20041;-72
2024/03/03 02:55:49;;;;;;;56.90;25.10;;;6.70;99.90;;;;;;5061793;28;20032;-73
2024/03/03 02:58:15;;;;;;;57.33;25.48;;;6.70;99.90;;;;;;5059249;28;20021;-77
2024/03/03 03:00:40;;;;;;;59.55;25.33;;;6.70;99.90;;;;;;5061436;28;20067;-73
2024/03/03 03:03:09;;;;;;;57.55;26.45;;;6.70;99.90;;;;;;5060424;28;20029;-73
2024/03/03 03:05:37;;;;;;;53.58;24.55;;;6.70;99.90;;;;;;5061002;28;20383;-74
2024/03/03 03:08:03;;;;;;;55.90;25.83;;;6.70;99.90;;;;;;5060747;28;20055;-72
2024/03/03 03:10:29;;;;;;;55.90;25.55;;;6.70;99.90;;;;;;5058157;28;20101;-75
2024/03/03 03:12:55;;;;;;;56.85;25.70;;;6.70;99.90;;;;;;5060153;28;20041;-72
2024/03/03 03:15:20;;;;;;;59.65;27.20;;;6.70;99.90;;;;;;5059238;28;20032;-73
2024/03/03 03:17:46;;;;;;;59.90;26.80;;;6.70;99.90;;;;;;5059663;28;20021;-72
2024/03/03 03:20:12;;;;;;;62.00;26.40;;;6.60;99.90;;;;;;5059327;28;20060;-72
2024/03/03 03:22:38;;;;;;;60.75;25.85;;;6.60;99.90;;;;;;5059539;28;20037;-72
2024/03/03 03:25:04;;;;;;;61.97;26.25;;;6.60;99.90;;;;;;5059100;28;20021;-72
2024/03/03 03:27:31;;;;;;;64.97;27.17;;;6.60;99.90;;;;;;5059557;28;20031;-73
2024/03/03 03:29:57;;;;;;;55.95;26.35;;;6.50;99.90;;;;;;5059448;28;20448;-74
2024/03/03 03:32:22;;;;;;;62.88;26.85;;;6.60;99.90;;;;;;5059751;28;20028;-74
2024/03/03 03:34:48;;;;;;;58.00;27.02;;;6.60;99.90;;;;;;5058776;28;20017;-73
2024/03/03 03:37:13;;;;;;;58.40;26.92;;;6.60;99.90;;;;;;5075577;28;20086;-73
2024/03/03 03:39:39;;;;;;;61.10;27.02;;;6.60;99.90;;;;;;5059504;28;20032;-73
2024/03/03 03:42:05;;;;;;;59.05;27.13;;;6.60;99.90;;;;;;5059520;28;20036;-72
2024/03/03 03:44:31;;;;;;;59.45;25.73;;;6.50;99.90;;;;;;5058919;28;20147;-72
2024/03/03 03:46:57;;;;;;;64.25;27.27;;;6.50;99.90;;;;;;5058787;28;20060;-73
2024/03/03 03:49:22;;;;;;;64.00;27.58;;;6.50;99.90;;;;;;5059420;28;20028;-71
2024/03/03 03:51:48;;;;;;;59.30;26.63;;;6.50;99.90;;;;;;5059779;28;20022;-74
2024/03/03 03:54:14;;;;;;;59.50;26.05;;;6.50;99.90;;;;;;5059741;28;20021;-73
2024/03/03 03:56:39;;;;;;;55.70;25.63;;;6.60;99.90;;;;;;5060147;28;20017;-72
2024/03/03 03:59:07;;;;;;;56.65;26.20;;;6.50;99.90;;;;;;5060139;28;20040;-73
2024/03/03 04:01:33;;;;;;;60.88;26.73;;;6.50;99.90;;;;;;5060364;28;20029;-73
2024/03/03 04:03:59;;;;;;;57.85;25.80;;;6.50;99.90;;;;;;5058162;28;20052;-73
2024/03/03 04:06:28;;;;;;;62.40;26.42;;;6.50;99.90;;;;;;5058969;28;20039;-75
2024/03/03 04:08:54;;;;;;;61.03;26.40;;;6.40;99.90;;;;;;5059665;28;20032;-74
2024/03/03 04:11:20;;;;;;;62.47;27.45;;;6.60;99.90;;;;;;5060119;28;20088;-75
2024/03/03 04:13:49;;;;;;;59.38;26.63;;;6.40;99.90;;;;;;5060908;28;20060;-74
2024/03/03 04:16:16;;;;;;;63.05;27.92;;;6.50;99.90;;;;;;5060827;28;20044;-74
2024/03/03 04:18:42;;;;;;;64.40;27.98;;;6.30;99.90;;;;;;5060707;28;20056;-73
2024/03/03 04:21:07;;;;;;;56.70;26.35;;;6.40;99.90;;;;;;5059946;28;20135;-74
2024/03/03 04:23:33;;;;;;;63.55;26.85;;;6.40;99.90;;;;;;5059487;28;20033;-72
2024/03/03 04:25:59;;;;;;;61.88;27.75;;;6.40;99.90;;;;;;5060911;28;20024;-74
2024/03/03 04:28:24;;;;;;;67.70;27.52;;;6.50;99.90;;;;;;5059135;28;20043;-73
2024/03/03 04:30:50;;;;;;;63.20;27.50;;;6.40;99.90;;;;;;5060138;28;20029;-73
2024/03/03 04:33:16;;;;;;;66.47;27.60;;;6.40;99.90;;;;;;5061624;28;20025;-73
2024/03/03 04:35:42;;;;;;;64.28;27.42;;;6.40;99.90;;;;;;5060106;28;20052;-72
2024/03/03 04:38:09;;;;;;;63.95;27.55;;;6.40;99.90;;;;;;5059851;28;20024;-73
2024/03/03 04:40:34;;;;;;;61.80;26.83;;;6.40;99.90;;;;;;5057489;28;20396;-73
2024/03/03 04:43:00;;;;;;;63.90;27.77;;;6.30;99.90;;;;;;5059259;28;20064;-72
2024/03/03 04:45:26;;;;;;;59.50;26.45;;;6.30;99.90;;;;;;5058868;28;20025;-72
2024/03/03 04:47:51;;;;;;;63.20;27.70;;;6.40;99.90;;;;;;5060970;28;20021;-73
2024/03/03 04:50:17;;;;;;;63.13;26.95;;;6.30;99.90;;;;;;5059795;28;20056;-74
2024/03/03 04:52:43;;;;;;;63.40;28.08;;;6.30;99.90;;;;;;5061050;28;20085;-72
2024/03/03 04:55:08;;;;;;;63.00;28.52;;;6.30;99.90;;;;;;5064034;28;20025;-72
2024/03/03 04:57:34;;;;;;;62.08;28.17;;;6.30;99.90;;;;;;5064500;28;20028;-72
2024/03/03 04:59:59;;;;;;;62.13;27.33;;;6.20;99.90;;;;;;5063549;28;20029;-73
2024/03/03 05:02:25;;;;;;;69.97;28.48;;;6.30;99.90;;;;;;5065039;28;20032;-73
2024/03/03 05:04:51;;;;;;;63.97;27.27;;;6.20;99.90;;;;;;5063405;28;20021;-73
2024/03/03 05:07:17;;;;;;;65.45;27.23;;;6.10;99.90;;;;;;5063312;28;20020;-73
2024/03/03 05:09:42;;;;;;;63.08;28.25;;;6.20;99.90;;;;;;5064782;28;20132;-73
2024/03/03 05:12:08;;;;;;;61.05;28.02;;;6.20;99.90;;;;;;5063245;28;20040;-73
2024/03/03 05:14:34;;;;;;;64.20;28.00;;;6.10;99.90;;;;;;5064774;28;20029;-72
2024/03/03 05:17:01;;;;;;;63.40;27.35;;;6.10;99.90;;;;;;5063686;28;20088;-72
2024/03/03 05:19:29;;;;;;;68.70;28.85;;;6.10;99.90;;;;;;5062482;28;20147;-72
2024/03/03 05:21:55;;;;;;;68.70;28.38;;;6.10;99.90;;;;;;5055382;28;20033;-73
2024/03/03 05:24:21;;;;;;;63.95;27.17;;;6.10;99.90;;;;;;5049514;28;20045;-73
2024/03/03 05:26:47;;;;;;;64.53;29.08;;;6.00;99.90;;;;;;5054069;28;20051;-72
2024/03/03 05:29:13;;;;;;;70.38;30.00;;;6.00;99.90;;;;;;5060756;28;20092;-74
2024/03/03 05:31:43;;;;;;;67.80;29.48;;;6.10;99.90;;;;;;5061967;28;20029;-74
2024/03/03 05:34:12;;;;;;;70.03;29.08;;;6.00;99.90;;;;;;5063883;28;20478;-73
2024/03/03 05:36:42;;;;;;;67.80;29.08;;;5.90;99.90;;;;;;5064262;28;20474;-72
2024/03/03 05:39:09;;;;;;;72.10;28.92;;;6.00;99.90;;;;;;5062802;28;20319;-72
2024/03/03 05:41:35;;;;;;;72.60;29.10;;;6.00;99.90;;;;;;5061652;28;20688;-73
2024/03/03 05:44:01;;;;;;;68.30;28.92;;;6.00;99.90;;;;;;5063079;28;20043;-73
2024/03/03 05:46:27;;;;;;;67.40;28.58;;;5.90;99.90;;;;;;5062844;28;20021;-72
2024/03/03 05:48:53;;;;;;;75.03;29.10;;;5.90;99.90;;;;;;5061957;28;20028;-72
2024/03/03 05:51:18;;;;;;;76.93;29.92;;;5.80;99.90;;;;;;5064389;28;20025;-74
2024/03/03 05:53:45;;;;;;;71.95;29.98;;;5.80;99.90;;;;;;5062772;28;20454;-73
2024/03/03 05:56:17;;;;;;;72.15;30.92;;;5.80;99.90;;;;;;5063806;28;20017;-73
2024/03/03 05:58:43;;;;;;;71.47;29.95;;;5.80;99.90;;;;;;5062183;28;20124;-72
2024/03/03 06:01:09;;;;;;;73.95;30.90;;;5.70;99.90;;;;;;5061969;28;20046;-72
2024/03/03 06:03:36;;;;;;;74.38;30.35;;;5.80;99.90;;;;;;5063707;28;20531;-73
2024/03/03 06:06:02;;;;;;;84.35;30.55;;;5.70;99.90;;;;;;5062695;28;20021;-73
2024/03/03 06:08:28;;;;;;;70.95;30.67;;;5.70;99.90;;;;;;5061130;28;20028;-73
2024/03/03 06:10:54;;;;;;;82.72;32.72;;;5.70;99.90;;;;;;5061407;28;20041;-72
2024/03/03 06:13:19;;;;;;;78.82;32.78;;;5.70;99.90;;;;;;5061763;28;20033;-71
2024/03/03 06:15:47;;;;;;;78.82;31.77;;;5.70;99.90;;;;;;5063402;28;20025;-73
2024/03/03 06:18:13;;;;;;;75.28;32.95;;;5.70;99.90;;;;;;5063737;28;20021;-71
2024/03/03 06:20:39;;;;;;;85.10;31.42;;;5.80;99.90;;;;;;5061107;28;20037;-73
2024/03/03 06:23:04;;;;;;;85.40;33.28;;;5.80;99.90;;;;;;5060232;28;20049;-71
2024/03/03 06:25:31;;;;;;;82.72;32.92;;;5.80;99.90;;;;;;5061188;28;20025;-73
2024/03/03 06:27:57;;;;;;;82.93;32.50;;;5.90;99.90;;;;;;5058211;28;20032;-72
2024/03/03 06:30:23;;;;;;;80.82;33.25;;;5.80;99.90;;;;;;5061681;28;20029;-72
2024/03/03 06:32:48;;;;;;;82.07;33.05;;;5.80;99.90;;;;;;5062494;28;21050;-72
2024/03/03 06:35:14;;;;;;;75.82;32.63;;;5.80;99.90;;;;;;5060952;28;20025;-73
2024/03/03 06:37:41;;;;;;;80.55;32.60;;;5.80;99.90;;;;;;5061645;28;20039;-73
2024/03/03 06:40:09;;;;;;;87.28;32.83;;;5.90;99.90;;;;;;5060814;28;20021;-71
2024/03/03 06:42:35;;;;;;;83.00;34.10;;;5.80;99.90;;;;;;5060624;28;20052;-71
2024/03/03 06:45:01;;;;;;;78.00;32.17;;;5.90;99.90;;;;;;5063127;28;20017;-72
2024/03/03 06:47:29;;;;;;;86.30;34.20;;;5.90;99.90;;;;;;5060320;28;20234;-72
2024/03/03 06:49:55;;;;;;;84.63;34.50;;;5.90;99.90;;;;;;5061542;28;20541;-72
2024/03/03 06:52:21;;;;;;;86.72;34.13;;;5.90;99.90;;;;;;5063060;28;20084;-72
2024/03/03 06:54:47;;;;;;;82.65;33.25;;;5.90;99.90;;;;;;5062317;28;20071;-73
2024/03/03 06:57:14;;;;;;;85.50;34.42;;;5.90;99.90;;;;;;5062862;28;20025;-71
2024/03/03 06:59:40;;;;;;;83.38;33.70;;;5.90;99.90;;;;;;5062000;28;20097;-72
2024/03/03 07:02:06;;;;;;;83.57;33.05;;;6.00;99.90;;;;;;5062024;28;20029;-72
2024/03/03 07:04:31;;;;;;;76.32;32.58;;;6.10;99.90;;;;;;5062567;28;20044;-73
2024/03/03 07:06:57;;;;;;;82.10;33.00;;;6.00;99.90;;;;;;5060699;28;20032;-73
2024/03/03 07:09:23;;;;;;;81.03;33.72;;;6.10;99.90;;;;;;5060676;28;20041;-72
2024/03/03 07:11:50;;;;;;;86.18;33.50;;;6.10;99.90;;;;;;5062726;28;20029;-72
2024/03/03 07:14:16;;;;;;;80.28;32.33;;;6.20;99.90;;;;;;5060337;28;20451;-72
2024/03/03 07:16:42;;;;;;;85.25;34.53;;;6.30;99.90;;;;;;5060820;28;21414;-72
2024/03/03 07:19:07;;;;;;;74.90;32.90;;;6.40;99.90;;;;;;5061673;28;20085;-72
2024/03/03 07:21:33;;;;;;;82.78;34.00;;;6.40;99.90;;;;;;5062337;28;20135;-71
2024/03/03 07:23:58;;;;;;;76.15;32.88;;;6.40;99.90;;;;;;5060665;28;20048;-72
2024/03/03 07:26:25;;;;;;;76.85;33.55;;;6.50;99.90;;;;;;5060394;28;20029;-72
2024/03/03 07:28:51;;;;;;;72.07;32.38;;;6.60;99.90;;;;;;5061230;28;20018;-75
2024/03/03 07:31:17;;;;;;;75.55;31.85;;;6.80;99.90;;;;;;5060211;28;20048;-73
2024/03/03 07:33:43;;;;;;;73.90;32.72;;;6.80;99.90;;;;;;5061799;28;20466;-73
2024/03/03 07:36:08;;;;;;;69.20;32.42;;;6.80;99.90;;;;;;5059177;28;20040;-73
2024/03/03 07:38:34;;;;;;;71.47;32.13;;;6.90;99.90;;;;;;5059473;28;20057;-74
2024/03/03 07:40:59;;;;;;;77.63;32.30;;;6.90;99.90;;;;;;5061853;28;20021;-73
2024/03/03 07:43:26;;;;;;;76.90;33.08;;;7.10;99.90;;;;;;5060685;28;20045;-73
2024/03/03 07:45:52;;;;;;;65.43;31.90;;;7.30;99.90;;;;;;5060749;28;20084;-73
2024/03/03 07:48:17;;;;;;;62.45;30.75;;;7.50;99.90;;;;;;5060846;28;20032;-73
2024/03/03 07:50:43;;;;;;;61.33;28.90;;;7.80;99.90;;;;;;5058573;28;20033;-73
2024/03/03 07:53:10;;;;;;;62.80;29.73;;;8.00;99.90;;;;;;5058819;28;20025;-73
2024/03/03 07:55:36;;;;;;;57.88;29.85;;;8.20;99.90;;;;;;5060420;28;20041;-72
2024/03/03 07:58:01;;;;;;;56.55;28.50;;;8.40;99.90;;;;;;5061866;28;20031;-73
2024/03/03 08:00:33;;;;;;;57.45;27.38;;;8.60;99.90;;;;;;5060671;28;20041;-73
2024/03/03 08:03:04;;;;;;;57.38;27.98;;;8.80;99.90;;;;;;5062001;28;20040;-71
2024/03/03 08:05:32;;;;;;;54.88;27.77;;;9.00;99.90;;;;;;5060363;28;20066;-73
2024/03/03 08:07:58;;;;;;;55.05;27.45;;;9.20;99.90;;;;;;5060846;28;20021;-70
2024/03/03 08:10:23;;;;;;;54.53;27.77;;;9.40;99.90;;;;;;5060794;28;20048;-71
2024/03/03 08:12:49;;;;;;;51.50;25.75;;;9.60;99.90;;;;;;5061782;28;20047;-72
2024/03/03 08:15:15;;;;;;;48.92;26.55;;;9.80;99.90;;;;;;5056732;28;20121;-71
2024/03/03 08:17:40;;;;;;;49.55;25.38;;;10.10;99.90;;;;;;5058832;28;20481;-72
2024/03/03 08:20:06;;;;;;;44.17;25.35;;;10.20;99.90;;;;;;5053377;28;20029;-72
2024/03/03 08:22:32;;;;;;;45.03;25.58;;;10.30;99.90;;;;;;5057971;28;20029;-72
2024/03/03 08:24:59;;;;;;;47.00;24.80;;;10.40;99.90;;;;;;5059040;28;20094;-72
2024/03/03 08:27:24;;;;;;;43.55;25.77;;;10.60;99.90;;;;;;5060917;28;20025;-72
2024/03/03 08:29:50;;;;;;;43.72;25.70;;;10.80;99.90;;;;;;5062520;28;20565;-72
2024/03/03 08:32:16;;;;;;;48.00;25.05;;;10.90;99.90;;;;;;5063044;28;20085;-73
2024/03/03 08:34:41;;;;;;;44.35;25.38;;;11.00;99.90;;;;;;5064957;28;20032;-72
2024/03/03 08:37:07;;;;;;;46.72;24.85;;;11.20;99.90;;;;;;5063178;28;20021;-71
2024/03/03 08:39:33;;;;;;;42.78;24.77;;;11.30;99.90;;;;;;5063431;28;20029;-72
2024/03/03 08:41:58;;;;;;;47.60;25.15;;;11.40;99.90;;;;;;5060816;28;20039;-72
2024/03/03 08:44:24;;;;;;;43.13;24.45;;;11.50;99.90;;;;;;5061233;28;20455;-73
2024/03/03 08:46:51;;;;;;;43.03;24.50;;;11.60;99.90;;;;;;5063167;28;20492;-73
2024/03/03 08:49:17;;;;;;;36.67;22.98;;;11.70;99.90;;;;;;5062332;28;20478;-74
2024/03/03 08:51:43;;;;;;;46.58;25.77;;;11.80;99.90;;;;;;5063385;28;20097;-72
2024/03/03 08:54:08;;;;;;;39.10;23.95;;;11.90;99.90;;;;;;5062583;28;20102;-72
2024/03/03 08:56:34;;;;;;;41.10;23.45;;;12.00;99.90;;;;;;5063305;28;20033;-73
2024/03/03 08:59:00;;;;;;;43.33;24.23;;;12.20;99.90;;;;;;5063531;28;20092;-73
2024/03/03 09:01:25;;;;;;;44.45;25.42;;;12.30;99.90;;;;;;5064966;28;20052;-73
2024/03/03 09:03:58;;;;;;;42.15;24.17;;;12.40;99.90;;;;;;5061831;28;20037;-73
2024/03/03 09:06:24;;;;;;;46.10;24.45;;;12.50;99.90;;;;;;5064929;28;20040;-73
2024/03/03 09:08:50;;;;;;;40.00;22.98;;;12.60;99.90;;;;;;5057934;28;20466;-73
2024/03/03 09:11:16;;;;;;;44.38;24.15;;;12.70;99.90;;;;;;5058796;28;20049;-74
2024/03/03 09:13:41;;;;;;;50.08;26.55;;;13.00;99.90;;;;;;5061387;28;20025;-73
2024/03/03 09:16:08;;;;;;;44.28;25.95;;;12.90;99.90;;;;;;5058312;28;20093;-72
2024/03/03 09:18:34;;;;;;;45.92;25.27;;;13.00;99.90;;;;;;5062893;28;20032;-72
2024/03/03 09:21:00;;;;;;;43.40;25.00;;;13.20;99.90;;;;;;5061674;28;20030;-72
2024/03/03 09:23:25;;;;;;;44.67;25.92;;;13.20;99.90;;;;;;5063603;28;20033;-73
2024/03/03 09:25:53;;;;;;;47.25;27.00;;;13.20;99.90;;;;;;5061093;28;20056;-74
2024/03/03 09:28:19;;;;;;;46.47;26.60;;;13.30;99.90;;;;;;5062571;28;20078;-73
2024/03/03 09:30:44;;;;;;;48.03;27.55;;;13.40;99.90;;;;;;5062404;28;20029;-74
2024/03/03 09:33:10;;;;;;;49.90;27.02;;;13.40;99.90;;;;;;5058753;28;20029;-73
2024/03/03 09:35:35;;;;;;;45.30;27.10;;;13.40;99.90;;;;;;5060744;28;20065;-74
2024/03/03 09:38:01;;;;;;;46.05;27.45;;;13.60;99.90;;;;;;5061568;28;20033;-73
2024/03/03 09:40:27;;;;;;;47.78;27.92;;;13.70;99.90;;;;;;5062623;28;20025;-73
2024/03/03 09:42:54;;;;;;;46.97;28.13;;;13.80;99.90;;;;;;5061985;28;20132;-73
2024/03/03 09:45:20;;;;;;;44.00;27.17;;;13.90;99.90;;;;;;5061593;28;20045;-74
2024/03/03 09:47:48;;;;;;;46.65;28.88;;;14.00;99.90;;;;;;5062711;28;20024;-72
2024/03/03 09:50:14;;;;;;;50.40;28.85;;;14.10;99.90;;;;;;5061086;28;20109;-72
2024/03/03 09:52:44;;;;;;;45.70;26.23;;;14.10;99.90;;;;;;5059525;28;20036;-74
2024/03/03 09:55:11;;;;;;;50.50;27.50;;;14.20;99.90;;;;;;5062130;28;20021;-72
2024/03/03 09:57:40;;;;;;;45.45;26.77;;;14.30;99.90;;;;;;5055118;28;20043;-72
2024/03/03 10:00:07;;;;;;;46.85;28.80;;;14.40;99.90;;;;;;5060200;28;20481;-73
2024/03/03 10:02:37;;;;;;;47.22;28.30;;;14.50;99.90;;;;;;5059770;28;20076;-72
2024/03/03 10:05:04;;;;;;;49.17;27.65;;;14.60;99.90;;;;;;5062718;28;20036;-73
2024/03/03 10:07:38;;;;;;;50.10;28.55;;;14.70;99.90;;;;;;5062379;28;20021;-73
2024/03/03 10:10:05;;;;;;;47.72;26.83;;;14.70;99.90;;;;;;5061095;28;20099;-74
2024/03/03 10:12:32;;;;;;;48.70;28.55;;;14.80;99.90;;;;;;5062313;28;20025;-73
2024/03/03 10:15:04;;;;;;;49.30;28.15;;;14.90;99.90;;;;;;5057936;28;20045;-73
2024/03/03 10:17:30;;;;;;;45.88;29.17;;;14.90;99.90;;;;;;5059628;28;20021;-74
2024/03/03 10:20:06;;;;;;;46.17;28.92;;;15.10;99.90;;;;;;5061330;28;20060;-73
2024/03/03 10:22:33;;;;;;;46.00;28.88;;;15.20;99.90;;;;;;5059120;28;20036;-73
2024/03/03 10:25:10;;;;;;;47.67;29.20;;;15.30;99.90;;;;;;5060986;28;20032;-73
2024/03/03 10:27:40;;;;;;;46.25;28.63;;;15.60;99.90;;;;;;5060775;28;20055;-74
2024/03/03 10:30:09;;;;;;;47.83;28.98;;;15.90;99.90;;;;;;5060884;28;20036;-73
2024/03/03 10:32:35;;;;;;;48.90;29.90;;;16.10;99.90;;;;;;5061146;28;20027;-75
2024/03/03 10:35:01;;;;;;;46.85;28.58;;;16.20;99.90;;;;;;5061757;28;20620;-73
2024/03/03 10:37:27;;;;;;;46.15;28.92;;;16.40;99.90;;;;;;5061402;28;20035;-73
2024/03/03 10:39:53;;;;;;;45.67;27.60;;;16.60;99.90;;;;;;5062657;28;20021;-73
2024/03/03 10:42:19;;;;;;;43.80;28.40;;;16.80;99.90;;;;;;5061715;28;20112;-72
2024/03/03 10:44:45;;;;;;;43.53;28.55;;;17.00;99.90;;;;;;5062877;28;20432;-74
2024/03/03 10:47:14;;;;;;;44.67;28.63;;;17.10;99.90;;;;;;5063202;28;20033;-76
2024/03/03 10:49:55;;;;;;;42.97;28.52;;;17.10;99.90;;;;;;5061464;28;20029;-74
2024/03/03 10:52:20;;;;;;;45.63;28.65;;;17.00;99.90;;;;;;5060968;28;20025;-73
2024/03/03 10:54:46;;;;;;;41.65;27.52;;;16.90;99.90;;;;;;5063038;28;20075;-74
2024/03/03 10:57:16;;;;;;;44.25;28.73;;;16.80;99.90;;;;;;5062925;28;20425;-73
2024/03/03 10:59:43;;;;;;;44.35;28.83;;;17.00;99.90;;;;;;5061485;28;20056;-72
2024/03/03 11:02:14;;;;;;;48.17;29.83;;;17.10;99.90;;;;;;5061473;28;20463;-72
2024/03/03 11:04:42;;;;;;;46.95;30.38;;;17.30;99.90;;;;;;5059922;28;20504;-73
2024/03/03 11:07:09;;;;;;;46.97;30.33;;;17.50;99.90;;;;;;5061160;28;20052;-73
2024/03/03 11:09:35;;;;;;;47.85;30.30;;;17.60;99.90;;;;;;5060765;28;20555;-73
2024/03/03 11:12:05;;;;;;;46.60;29.52;;;17.70;99.90;;;;;;5062356;28;20041;-72
2024/03/03 11:14:54;;;;;;;47.88;29.30;;;17.90;99.90;;;;;;5062354;28;20071;-73
2024/03/03 11:17:21;;;;;;;42.97;28.63;;;18.10;99.90;;;;;;5062180;28;20021;-74
2024/03/03 11:19:48;;;;;;;47.15;29.40;;;18.10;99.90;;;;;;5060721;28;20025;-74
2024/03/03 11:22:24;;;;;;;46.20;29.90;;;18.40;99.90;;;;;;5058954;28;20091;-73
2024/03/03 11:24:57;;;;;;;42.33;29.23;;;18.40;99.90;;;;;;5057411;28;20486;-74
2024/03/03 11:27:26;;;;;;;43.83;28.08;;;18.40;99.90;;;;;;5060092;28;20032;-75
2024/03/03 11:29:52;;;;;;;41.95;28.95;;;18.30;99.90;;;;;;5058574;28;20029;-75
2024/03/03 11:32:27;;;;;;;44.08;29.08;;;18.40;99.90;;;;;;5054883;28;20021;-74
2024/03/03 11:34:54;;;;;;;44.35;29.50;;;18.30;99.90;;;;;;5053769;28;20025;-74
2024/03/03 11:37:20;;;;;;;41.85;29.08;;;18.50;99.90;;;;;;5059838;28;20025;-74
2024/03/03 11:39:54;;;;;;;44.90;29.63;;;18.70;99.90;;;;;;5059574;28;20029;-74
2024/03/03 11:42:35;;;;;;;44.63;29.37;;;18.90;99.90;;;;;;5060191;28;20033;-74
2024/03/03 11:45:03;;;;;;;47.88;30.52;;;19.10;99.90;;;;;;5062020;28;20063;-74
2024/03/03 11:47:30;;;;;;;47.72;29.48;;;19.20;99.90;;;;;;5059804;28;20024;-73
2024/03/03 11:49:57;;;;;;;46.90;31.23;;;19.40;99.90;;;;;;5060708;28;20040;-73
2024/03/03 11:52:40;;;;;;;49.13;29.42;;;19.60;99.90;;;;;;5060989;28;20127;-74
2024/03/03 11:55:08;;;;;;;42.55;30.45;;;19.60;99.90;;;;;;5061043;28;20029;-73
2024/03/03 11:57:33;;;;;;;44.58;30.27;;;19.90;99.90;;;;;;5059438;28;20132;-73
2024/03/03 12:00:12;;;;;;;45.35;29.02;;;20.00;99.90;;;;;;5057134;28;20033;-75
2024/03/03 12:02:40;;;;;;;44.40;30.15;;;19.90;99.90;;;;;;5059194;28;20021;-73
2024/03/03 12:05:08;;;;;;;43.20;29.42;;;19.90;99.90;;;;;;5061471;28;20021;-74
2024/03/03 12:07:34;;;;;;;45.15;31.67;;;19.90;99.90;;;;;;5062048;28;20118;-73
2024/03/03 12:10:00;;;;;;;45.35;31.08;;;20.10;99.90;;;;;;5060607;28;20183;-72
2024/03/03 12:12:25;;;;;;;49.03;31.88;;;20.10;99.90;;;;;;5062679;28;21362;-72
2024/03/03 12:14:52;;;;;;;46.90;31.30;;;20.10;99.90;;;;;;5065520;28;20025;-72
2024/03/03 12:17:17;;;;;;;47.17;30.95;;;20.00;99.90;;;;;;5064192;28;20033;-73
2024/03/03 12:19:43;;;;;;;47.05;30.02;;;19.80;99.90;;;;;;5064487;28;20036;-74
2024/03/03 12:22:09;;;;;;;49.08;32.58;;;19.80;99.90;;;;;;5065773;28;20044;-73
2024/03/03 12:24:36;;;;;;;45.55;31.08;;;19.80;99.90;;;;;;5065354;28;20040;-74
2024/03/03 12:27:03;;;;;;;47.72;32.80;;;19.80;99.90;;;;;;5063944;28;20040;-73
2024/03/03 12:29:29;;;;;;;49.60;32.92;;;19.70;99.90;;;;;;5065235;28;20035;-73